Aérodrome :
LOGIN :

S'inscrire | Disclaimer

   EN    FR    IT 

 










Légende :    VFR   VFR Marginal   IFR   IFR Intensif   IFR Très Intensif
Visi : 
Plafond : 
>= 8 km
>= 3000ft
5 à 8 km
1000 à 3000 ft
1500m à 5 km
500 à 1000 ft
800 à 1500m
200 à 500 ft
< 800m
< 200 ft
Symboles :   Orages  Brouillard  Fortes neiges  Fortes précipitations  Vent > 20 kt
SIGMETs :   Divers  Orages  Givrage  Turbulence  Onde Orograph.  Cendres Volcan.







- Altitude de l'aérodrome : 177 ft
- Code IATA : BRI


LIBD - Palese Macchie Bari

DERNIER METAR :
  • 201920Z 16002KT CAVOK 26/14 Q1013

METARs EXPIRÉS :
  • 201850Z 12004KT CAVOK 28/14 Q1012
  • 201820Z 11005KT CAVOK 28/14 Q1012
  • 201750Z 10006KT 060V130 CAVOK 29/16 Q1012
  • 201720Z 10008KT CAVOK 29/13 Q1012
  • 201650Z 10008KT CAVOK 30/13 Q1012

TAF TAF LIBD
Valide du 20 à 18h jusqu'au 21 à 18h UTC


201700Z 2018/2118 06010KT CAVOK
BECMG 2018/2019 VRB05KT
BECMG 2108/2110 05012KT
Pas de NOTAMs connus pour ce terrain.



MET'MAP, la Météo Aéronautique d'un coup d'oeil ! - Copyright ORBIFLY Décembre 2007 - Disclaimer

ORBIFLY MET'MAP TEAM :

Programmation & Développement : Alexandra Zaïnal
Conception & Développement : Baudouin d'Aumeries
Co-Programmation & Développement : Marc-Olivier Méhu
Soutien technique & logistique : Manuel Goepfert

Contact : metmap@orbifly.com




SOURCES & CREDITS :

   NOAA